createdAt,value
2022-09-15T00:00:31.476Z,93.87
2022-09-15T00:03:20.790Z,93.75
2022-09-15T00:06:12.372Z,93.89
2022-09-15T00:09:00.774Z,93.50
2022-09-15T00:12:00.117Z,93.64
2022-09-15T00:14:48.432Z,93.65
2022-09-15T00:17:50.699Z,93.52
2022-09-15T00:20:42.049Z,93.48
2022-09-15T00:23:30.326Z,93.87
2022-09-15T00:26:27.478Z,93.78
2022-09-15T00:29:17.153Z,93.40
2022-09-15T00:32:11.545Z,93.34
2022-09-15T00:34:59.925Z,93.45
2022-09-15T00:37:48.247Z,93.42
2022-09-15T00:40:45.489Z,93.88
2022-09-15T00:43:46.845Z,93.97
2022-09-15T00:46:39.622Z,94.07
2022-09-15T00:49:37.574Z,93.71
2022-09-15T00:52:33.428Z,93.72
2022-09-15T00:55:27.632Z,93.69
2022-09-15T00:58:19.855Z,93.35
2022-09-15T01:01:09.819Z,93.47
2022-09-15T01:04:08.891Z,93.49
2022-09-15T01:07:00.677Z,93.32
2022-09-15T01:09:53.851Z,93.31
2022-09-15T01:12:42.911Z,93.32
2022-09-15T01:15:48.115Z,93.14
2022-09-15T01:18:43.937Z,93.18
2022-09-15T01:21:42.874Z,93.00
2022-09-15T01:24:55.381Z,93.28
2022-09-15T01:28:37.309Z,93.23
2022-09-15T01:31:31.441Z,93.21
2022-09-15T01:34:21.229Z,93.13
2022-09-15T01:37:15.898Z,93.36
2022-09-15T01:40:05.146Z,93.04
2022-09-15T01:43:03.211Z,93.03
2022-09-15T01:45:53.121Z,92.79
2022-09-15T01:48:44.549Z,92.86
2022-09-15T01:51:35.443Z,92.80
2022-09-15T01:54:33.852Z,92.91
2022-09-15T01:57:23.095Z,92.88
2022-09-15T02:00:15.305Z,93.28
2022-09-15T02:03:11.815Z,97.27
2022-09-15T02:06:07.387Z,100.00
2022-09-15T02:09:01.523Z,100.00
2022-09-15T02:11:55.450Z,100.00
2022-09-15T02:14:55.471Z,100.00
2022-09-15T02:17:50.662Z,100.00
2022-09-15T02:20:45.247Z,100.00
2022-09-15T02:23:40.176Z,100.00
2022-09-15T02:26:30.482Z,100.00
2022-09-15T02:29:30.152Z,99.60
2022-09-15T02:32:23.265Z,99.31
2022-09-15T02:35:13.387Z,98.28
2022-09-15T02:38:04.379Z,97.41
2022-09-15T02:40:54.294Z,96.78
2022-09-15T02:43:50.336Z,96.20
2022-09-15T02:46:39.279Z,96.06
2022-09-15T02:49:36.587Z,95.34
2022-09-15T02:52:25.497Z,95.62
2022-09-15T02:55:23.278Z,94.61
2022-09-15T02:58:12.941Z,94.35
2022-09-15T03:01:11.188Z,94.17
2022-09-15T03:04:00.297Z,93.26
2022-09-15T03:06:57.436Z,93.26
2022-09-15T03:09:46.207Z,93.26
2022-09-15T03:12:45.608Z,92.68
2022-09-15T03:15:35.633Z,93.57
2022-09-15T03:18:32.146Z,92.98
2022-09-15T03:21:20.727Z,93.19
2022-09-15T03:24:19.343Z,93.31
2022-09-15T03:27:07.606Z,93.54
2022-09-15T03:30:05.834Z,93.49
2022-09-15T03:32:55.512Z,93.53
2022-09-15T03:35:53.375Z,94.12
2022-09-15T03:38:41.942Z,94.73
2022-09-15T03:41:30.346Z,94.98
2022-09-15T03:44:27.894Z,95.32
2022-09-15T03:47:16.295Z,95.28
2022-09-15T03:50:15.010Z,95.42
2022-09-15T03:53:03.307Z,96.42
2022-09-15T03:56:10.766Z,96.46
2022-09-15T03:58:59.182Z,96.51
2022-09-15T04:01:56.368Z,97.38
2022-09-15T04:04:44.707Z,97.11
2022-09-15T04:07:37.629Z,98.39
2022-09-15T04:10:26.056Z,99.73
2022-09-15T04:13:17.432Z,100.00
2022-09-15T04:16:08.231Z,100.00
2022-09-15T04:18:57.604Z,100.00
2022-09-15T04:21:47.521Z,100.00
2022-09-15T04:24:37.369Z,100.00
2022-09-15T04:27:34.454Z,100.00
2022-09-15T04:30:23.009Z,100.00
2022-09-15T04:33:11.352Z,100.00
2022-09-15T04:36:00.367Z,100.00
2022-09-15T04:38:49.048Z,100.00
2022-09-15T04:41:39.383Z,100.00
2022-09-15T04:44:36.775Z,100.00
2022-09-15T04:47:25.122Z,100.00
2022-09-15T04:50:13.571Z,100.00
2022-09-15T04:53:01.861Z,100.00
2022-09-15T04:56:03.465Z,100.00
2022-09-15T04:58:57.274Z,100.00
2022-09-15T05:01:48.718Z,100.00
2022-09-15T05:04:43.067Z,100.00
2022-09-15T05:07:31.539Z,100.00
2022-09-15T05:10:19.886Z,100.00
2022-09-15T05:13:08.146Z,100.00
2022-09-15T05:15:57.976Z,100.00
2022-09-15T05:18:57.613Z,100.00
2022-09-15T05:21:45.891Z,100.00
2022-09-15T05:24:43.372Z,100.00
2022-09-15T05:27:32.831Z,100.00
2022-09-15T05:30:38.037Z,100.00
2022-09-15T05:33:29.361Z,100.00
2022-09-15T05:36:27.085Z,100.00
2022-09-15T05:39:15.522Z,100.00
2022-09-15T05:42:04.079Z,100.00
2022-09-15T05:44:58.518Z,100.00
2022-09-15T05:47:46.917Z,100.00
2022-09-15T05:50:50.397Z,100.00
2022-09-15T05:53:38.856Z,100.00
2022-09-15T05:56:33.244Z,100.00
2022-09-15T05:59:21.538Z,100.00
2022-09-15T06:02:16.121Z,99.25
2022-09-15T06:05:04.536Z,99.25
2022-09-15T06:07:55.150Z,98.16
2022-09-15T06:10:43.772Z,99.36
2022-09-15T06:13:32.284Z,97.86
2022-09-15T06:16:23.371Z,96.36
2022-09-15T06:19:11.708Z,95.92
2022-09-15T06:22:08.894Z,95.84
2022-09-15T06:24:58.537Z,97.07
2022-09-15T06:27:55.602Z,98.14
2022-09-15T06:30:48.966Z,97.77
2022-09-15T06:33:37.393Z,98.72
2022-09-15T06:36:31.154Z,99.83
2022-09-15T06:39:19.440Z,98.48
2022-09-15T06:42:10.341Z,100.00
2022-09-15T06:45:04.414Z,99.41
2022-09-15T06:48:23.595Z,97.61
2022-09-15T06:51:12.758Z,98.17
2022-09-15T06:54:00.966Z,97.07
2022-09-15T06:56:55.481Z,97.02
2022-09-15T06:59:45.156Z,96.74
2022-09-15T07:02:39.655Z,97.12
2022-09-15T07:05:28.527Z,97.53
2022-09-15T07:08:22.987Z,97.62
2022-09-15T07:11:11.664Z,98.19
2022-09-15T07:14:06.229Z,100.00
2022-09-15T07:16:55.948Z,99.11
2022-09-15T07:19:45.399Z,99.47
2022-09-15T07:22:33.797Z,100.00
2022-09-15T07:25:22.290Z,100.00
2022-09-15T07:28:11.160Z,95.32
2022-09-15T07:30:59.493Z,100.00
2022-09-15T07:33:49.811Z,100.00
2022-09-15T07:36:38.553Z,97.95
2022-09-15T07:39:26.967Z,99.88
2022-09-15T07:42:15.591Z,100.00
2022-09-15T07:45:05.593Z,100.00
2022-09-15T07:47:54.611Z,100.00
2022-09-15T07:50:47.913Z,100.00
2022-09-15T07:53:36.383Z,100.00
2022-09-15T07:56:25.274Z,100.00
2022-09-15T07:59:13.696Z,100.00
2022-09-15T08:02:02.083Z,100.00
2022-09-15T08:04:58.076Z,100.00
2022-09-15T08:07:47.862Z,100.00
2022-09-15T08:10:39.161Z,100.00
2022-09-15T08:13:27.559Z,100.00
2022-09-15T08:16:18.095Z,100.00
2022-09-15T08:19:06.617Z,100.00
2022-09-15T08:22:01.809Z,100.00
2022-09-15T08:24:51.505Z,100.00
2022-09-15T08:27:39.990Z,100.00
2022-09-15T08:30:29.058Z,100.00
2022-09-15T08:33:17.461Z,100.00
2022-09-15T08:36:08.227Z,100.00
2022-09-15T08:38:57.021Z,100.00
2022-09-15T08:41:49.347Z,100.00
2022-09-15T08:44:44.369Z,100.00
2022-09-15T08:47:37.352Z,100.00
2022-09-15T08:50:30.034Z,100.00
2022-09-15T08:53:23.711Z,100.00
2022-09-15T08:56:17.153Z,100.00
2022-09-15T08:59:06.889Z,100.00
2022-09-15T09:02:29.598Z,100.00
2022-09-15T09:05:37.074Z,100.00
2022-09-15T09:08:42.034Z,100.00
2022-09-15T09:11:43.853Z,100.00
2022-09-15T09:14:44.831Z,99.40
2022-09-15T09:17:47.230Z,100.00
2022-09-15T09:20:50.041Z,99.03
2022-09-15T09:23:44.286Z,97.20
2022-09-15T09:26:35.866Z,94.19
2022-09-15T09:29:31.862Z,94.37
2022-09-15T09:32:24.673Z,95.52
2022-09-15T09:35:21.704Z,91.18
2022-09-15T09:38:11.234Z,90.87
2022-09-15T09:41:02.576Z,89.37
2022-09-15T09:43:53.459Z,91.87
2022-09-15T09:46:42.480Z,89.75
2022-09-15T09:49:44.377Z,87.38
2022-09-15T09:52:37.336Z,91.45
2022-09-15T09:55:27.929Z,91.88
2022-09-15T09:58:20.905Z,91.01
2022-09-15T10:01:11.945Z,91.16
2022-09-15T10:04:19.188Z,90.70
2022-09-15T10:07:10.036Z,87.90
2022-09-15T10:10:00.942Z,89.52
2022-09-15T10:12:50.486Z,88.93
2022-09-15T10:15:45.171Z,89.59
2022-09-15T10:18:35.467Z,90.29
2022-09-15T10:21:29.670Z,88.29
2022-09-15T10:24:36.267Z,91.83
2022-09-15T10:27:31.678Z,92.45
2022-09-15T10:30:20.854Z,92.27
2022-09-15T10:33:20.924Z,92.73
2022-09-15T10:36:15.217Z,92.03
2022-09-15T10:39:12.051Z,92.44
2022-09-15T10:42:14.043Z,95.07
2022-09-15T10:45:16.067Z,95.31
2022-09-15T10:48:25.581Z,95.37
2022-09-15T10:51:33.542Z,94.77
2022-09-15T10:54:45.487Z,95.51
2022-09-15T10:57:55.509Z,95.46
2022-09-15T11:00:56.203Z,97.52
2022-09-15T11:04:30.510Z,99.91
2022-09-15T11:07:30.392Z,100.00
2022-09-15T11:10:27.023Z,98.72
2022-09-15T11:13:27.371Z,98.45
2022-09-15T11:16:29.509Z,98.60
2022-09-15T11:19:33.794Z,98.48
2022-09-15T11:22:27.265Z,98.45
2022-09-15T11:25:20.703Z,100.00
2022-09-15T11:28:19.221Z,98.45
2022-09-15T11:31:16.513Z,98.40
2022-09-15T11:34:12.761Z,95.59
2022-09-15T11:37:07.307Z,92.85
2022-09-15T11:40:01.101Z,91.89
2022-09-15T11:42:54.555Z,89.80
2022-09-15T11:45:49.802Z,88.98
2022-09-15T11:48:46.197Z,87.59
2022-09-15T11:51:41.771Z,87.20
2022-09-15T11:54:37.555Z,85.35
2022-09-15T11:57:31.745Z,85.20
2022-09-15T12:00:21.664Z,85.77
2022-09-15T12:03:19.367Z,82.98
2022-09-15T12:06:16.301Z,85.99
2022-09-15T12:09:06.773Z,84.61
2022-09-15T12:11:59.621Z,85.21
2022-09-15T12:14:50.393Z,85.45
2022-09-15T12:17:46.560Z,81.84
2022-09-15T12:20:40.874Z,83.99
2022-09-15T12:23:35.098Z,86.92
2022-09-15T12:26:26.239Z,87.96
2022-09-15T12:29:42.483Z,86.08
2022-09-15T12:32:33.292Z,85.61
2022-09-15T12:35:33.313Z,86.79
2022-09-15T12:38:24.288Z,83.40
2022-09-15T12:41:14.258Z,86.49
2022-09-15T12:44:21.140Z,84.46
2022-09-15T12:47:21.983Z,85.02
2022-09-15T12:50:25.298Z,84.35
2022-09-15T12:53:20.266Z,81.89
2022-09-15T12:56:12.050Z,82.83
2022-09-15T12:59:08.078Z,83.40
2022-09-15T13:01:57.683Z,82.65
2022-09-15T13:04:55.501Z,82.37
2022-09-15T13:08:01.648Z,80.55
2022-09-15T13:11:02.995Z,81.50
2022-09-15T13:13:54.471Z,82.52
2022-09-15T13:16:51.822Z,83.56
2022-09-15T13:19:46.751Z,82.75
2022-09-15T13:22:38.511Z,83.06
2022-09-15T13:25:30.364Z,82.20
2022-09-15T13:28:19.017Z,81.93
2022-09-15T13:31:22.172Z,80.01
2022-09-15T13:35:04.317Z,80.41
2022-09-15T13:38:26.473Z,79.93
2022-09-15T13:41:46.265Z,81.27
2022-09-15T13:45:17.566Z,80.82
2022-09-15T13:48:24.172Z,83.39
2022-09-15T13:51:20.672Z,82.56
2022-09-15T13:54:18.972Z,83.37
2022-09-15T13:57:07.328Z,81.63
2022-09-15T13:59:58.504Z,80.95
2022-09-15T14:02:49.928Z,80.97
2022-09-15T14:05:38.666Z,80.16
2022-09-15T14:08:35.053Z,80.68
2022-09-15T14:11:27.704Z,80.24
2022-09-15T14:14:35.586Z,82.51
2022-09-15T14:17:25.438Z,82.29
2022-09-15T14:20:26.171Z,79.30
2022-09-15T14:23:17.387Z,78.98
2022-09-15T14:26:14.857Z,79.28
2022-09-15T14:29:05.573Z,78.78
2022-09-15T14:31:55.096Z,79.47
2022-09-15T14:34:54.218Z,81.36
2022-09-15T14:37:42.539Z,80.89
2022-09-15T14:40:33.646Z,80.53
2022-09-15T14:43:33.117Z,79.89
2022-09-15T14:46:21.477Z,79.81
2022-09-15T14:49:16.829Z,79.33
2022-09-15T14:52:05.594Z,79.98
2022-09-15T14:55:04.999Z,80.50
2022-09-15T14:57:58.693Z,82.94
2022-09-15T15:01:13.745Z,84.03
2022-09-15T15:04:17.060Z,83.24
2022-09-15T15:07:15.058Z,82.31
2022-09-15T15:10:07.168Z,82.62
2022-09-15T15:12:59.860Z,82.81
2022-09-15T15:15:48.744Z,82.36
2022-09-15T15:18:43.330Z,82.80
2022-09-15T15:21:37.677Z,83.41
2022-09-15T15:24:26.182Z,82.23
2022-09-15T15:27:41.876Z,83.32
2022-09-15T15:30:36.309Z,83.12
2022-09-15T15:33:28.536Z,84.50
2022-09-15T15:36:22.813Z,85.75
2022-09-15T15:39:25.599Z,85.48
2022-09-15T15:42:16.773Z,86.10
2022-09-15T15:45:23.781Z,89.54
2022-09-15T15:48:12.111Z,89.27
2022-09-15T15:51:09.781Z,88.73
2022-09-15T15:53:59.604Z,90.09
2022-09-15T15:56:56.822Z,91.67
2022-09-15T15:59:48.175Z,92.70
2022-09-15T16:02:36.831Z,93.50
2022-09-15T16:05:31.560Z,94.68
2022-09-15T16:08:25.638Z,92.94
2022-09-15T16:11:17.075Z,92.61
2022-09-15T16:14:05.456Z,95.43
2022-09-15T16:16:59.937Z,95.76
2022-09-15T16:19:48.868Z,97.36
2022-09-15T16:22:43.692Z,99.65
2022-09-15T16:25:43.031Z,98.07
2022-09-15T16:28:33.132Z,98.60
2022-09-15T16:31:30.447Z,100.00
2022-09-15T16:34:19.548Z,99.52
2022-09-15T16:37:16.947Z,100.00
2022-09-15T16:40:06.606Z,100.00
2022-09-15T16:43:01.591Z,100.00
2022-09-15T16:45:52.675Z,100.00
2022-09-15T16:48:42.838Z,100.00
2022-09-15T16:51:40.121Z,100.00
2022-09-15T16:54:28.605Z,100.00
2022-09-15T16:57:25.845Z,100.00
2022-09-15T17:00:15.529Z,100.00
2022-09-15T17:03:18.273Z,100.00
2022-09-15T17:06:07.479Z,100.00
2022-09-15T17:08:55.772Z,100.00
2022-09-15T17:11:44.015Z,100.00
2022-09-15T17:14:32.275Z,100.00
2022-09-15T17:17:26.708Z,100.00
2022-09-15T17:20:17.868Z,100.00
2022-09-15T17:23:17.469Z,100.00
2022-09-15T17:26:07.882Z,100.00
2022-09-15T17:29:02.298Z,100.00
2022-09-15T17:31:50.680Z,100.00
2022-09-15T17:34:45.126Z,100.00
2022-09-15T17:37:35.086Z,100.00
2022-09-15T17:40:30.455Z,100.00
2022-09-15T17:43:20.591Z,100.00
2022-09-15T17:46:09.166Z,99.42
2022-09-15T17:48:57.697Z,98.38
2022-09-15T17:51:46.098Z,98.29
2022-09-15T17:54:45.271Z,98.86
2022-09-15T17:57:33.574Z,97.63
2022-09-15T18:00:33.462Z,97.99
2022-09-15T18:03:27.025Z,98.20
2022-09-15T18:06:15.447Z,97.93
2022-09-15T18:09:09.997Z,100.00
2022-09-15T18:12:00.200Z,100.00
2022-09-15T18:14:54.335Z,100.00
2022-09-15T18:17:43.613Z,100.00
2022-09-15T18:20:34.166Z,99.66
2022-09-15T18:23:24.739Z,100.00
2022-09-15T18:26:13.122Z,100.00
2022-09-15T18:29:03.610Z,99.49
2022-09-15T18:31:53.187Z,100.00
2022-09-15T18:34:41.686Z,98.36
2022-09-15T18:37:36.968Z,94.94
2022-09-15T18:40:26.456Z,94.76
2022-09-15T18:43:26.576Z,94.22
2022-09-15T18:46:17.523Z,96.31
2022-09-15T18:49:09.598Z,96.54
2022-09-15T18:51:59.346Z,97.16
2022-09-15T18:54:54.173Z,97.94
2022-09-15T18:57:43.119Z,99.54
2022-09-15T19:00:37.740Z,99.58
2022-09-15T19:03:27.556Z,100.00
2022-09-15T19:06:22.271Z,99.96
2022-09-15T19:09:11.091Z,97.79
2022-09-15T19:11:59.410Z,96.89
2022-09-15T19:14:48.506Z,98.45
2022-09-15T19:17:38.371Z,98.29
2022-09-15T19:20:28.067Z,97.94
2022-09-15T19:23:22.180Z,96.31
2022-09-15T19:26:13.921Z,98.26
2022-09-15T19:29:03.387Z,98.99
2022-09-15T19:32:00.748Z,100.00
2022-09-15T19:34:49.395Z,98.90
2022-09-15T19:37:48.776Z,100.00
2022-09-15T19:40:37.157Z,100.00
2022-09-15T19:43:25.625Z,100.00
2022-09-15T19:46:15.382Z,100.00
2022-09-15T19:49:04.484Z,100.00
2022-09-15T19:51:55.608Z,100.00
2022-09-15T19:54:54.332Z,100.00
2022-09-15T19:57:43.688Z,100.00
2022-09-15T20:00:40.959Z,100.00
2022-09-15T20:03:30.155Z,100.00
2022-09-15T20:06:19.066Z,100.00
2022-09-15T20:09:08.806Z,100.00
2022-09-15T20:12:03.771Z,100.00
2022-09-15T20:14:53.407Z,100.00
2022-09-15T20:17:51.762Z,100.00
2022-09-15T20:20:41.832Z,100.00
2022-09-15T20:23:36.859Z,100.00
2022-09-15T20:26:26.756Z,100.00
2022-09-15T20:29:19.010Z,100.00
2022-09-15T20:32:07.773Z,100.00
2022-09-15T20:34:57.410Z,100.00
2022-09-15T20:37:46.626Z,100.00
2022-09-15T20:40:35.397Z,100.00
2022-09-15T20:43:33.363Z,100.00
2022-09-15T20:46:24.735Z,100.00
2022-09-15T20:49:14.393Z,100.00
2022-09-15T20:52:03.877Z,100.00
2022-09-15T20:54:53.002Z,100.00
2022-09-15T20:57:41.740Z,100.00
2022-09-15T21:00:33.803Z,100.00
2022-09-15T21:03:24.427Z,100.00
2022-09-15T21:06:24.191Z,100.00
2022-09-15T21:09:12.819Z,100.00
2022-09-15T21:12:10.617Z,100.00
2022-09-15T21:14:59.323Z,100.00
2022-09-15T21:17:47.993Z,100.00
2022-09-15T21:20:38.283Z,100.00
2022-09-15T21:23:37.953Z,100.00
2022-09-15T21:26:28.055Z,100.00
2022-09-15T21:29:26.507Z,100.00
2022-09-15T21:32:15.304Z,100.00
2022-09-15T21:35:12.884Z,100.00
2022-09-15T21:38:02.943Z,100.00
2022-09-15T21:40:51.571Z,100.00
2022-09-15T21:43:50.355Z,100.00
2022-09-15T21:46:39.003Z,100.00
2022-09-15T21:49:27.650Z,100.00
2022-09-15T21:52:16.275Z,100.00
2022-09-15T21:55:15.515Z,100.00
2022-09-15T21:58:04.238Z,100.00
2022-09-15T22:01:10.872Z,100.00
2022-09-15T22:04:01.488Z,100.00
2022-09-15T22:06:50.398Z,100.00
2022-09-15T22:09:44.855Z,100.00
2022-09-15T22:12:34.940Z,100.00
2022-09-15T22:15:29.876Z,100.00
2022-09-15T22:18:18.632Z,100.00
2022-09-15T22:21:09.954Z,100.00
2022-09-15T22:23:59.735Z,100.00
2022-09-15T22:26:54.607Z,100.00
2022-09-15T22:29:44.710Z,100.00
2022-09-15T22:32:39.877Z,100.00
2022-09-15T22:35:28.628Z,100.00
2022-09-15T22:38:17.350Z,100.00
2022-09-15T22:41:07.288Z,100.00
2022-09-15T22:44:05.855Z,100.00
2022-09-15T22:46:57.781Z,100.00
2022-09-15T22:49:46.506Z,100.00
2022-09-15T22:52:41.083Z,100.00
2022-09-15T22:55:31.470Z,100.00
2022-09-15T22:58:26.012Z,100.00
2022-09-15T23:01:17.017Z,100.00
2022-09-15T23:04:06.787Z,100.00
2022-09-15T23:07:04.497Z,100.00
2022-09-15T23:09:52.825Z,100.00
2022-09-15T23:12:50.091Z,100.00
2022-09-15T23:15:38.337Z,100.00
2022-09-15T23:18:35.820Z,100.00
2022-09-15T23:21:26.029Z,100.00
2022-09-15T23:24:23.989Z,100.00
2022-09-15T23:27:12.283Z,100.00
2022-09-15T23:30:10.724Z,100.00
2022-09-15T23:32:59.001Z,100.00
2022-09-15T23:35:56.365Z,100.00
2022-09-15T23:38:47.153Z,100.00
2022-09-15T23:41:36.856Z,100.00
2022-09-15T23:44:33.868Z,100.00
2022-09-15T23:47:22.205Z,100.00
2022-09-15T23:50:19.555Z,100.00
2022-09-15T23:53:08.159Z,100.00
2022-09-15T23:56:07.571Z,100.00
2022-09-15T23:58:55.951Z,100.00
